Terminal Aerodrome Forecast
Issued by NWS

Home | Current Version | Previous Version | Text Only | Print | Product List | Glossary On
Versions: 1 2 3 4 5 6 7 8 9 10 11 12 13 14 15 16 17 18 19 20 21 22 23 24
000
FTUS46 KLOX 012353
TAFOXR
TAF
KOXR 012353Z 0200/0224 27010KT P6SM FEW250
     FM020400 28006KT P6SM SCT007
     FM020730 VRB03KT P6SM OVC007
     FM021200 VRB03KT P6SM OVC012
     FM021800 26010KT P6SM SCT012 SCT250
     FM022200 27012G18KT P6SM SCT250=

USA.gov is the U.S. government's official web portal to all federal, state and local government web resources and services.